Time;durP1;ratioP1;P1;durP2;ratioP2;P2;SDS_P1;SDS_P2;PMS_P1;PMS_P2;Temp;Humidity;BMP_temperature;BMP_pressure;BME280_temperature;BME280_humidity;BME280_pressure;Samples;Min_cycle;Max_cycle;Signal;HPM_P1;HPM_P2
2022/11/28 00:01:33;;;;;;;5.40;3.17;;;;;;;;;;5044225;28;20387;-66
2022/11/28 00:03:58;;;;;;;8.45;3.50;;;;;;;;;;5049916;28;20017;-64
2022/11/28 00:06:24;;;;;;;5.63;3.25;;;;;;;;;;5043406;28;20084;-66
2022/11/28 00:08:49;;;;;;;5.47;2.88;;;;;;;;;;5040525;28;20032;-67
2022/11/28 00:11:15;;;;;;;5.80;3.05;;;;;;;;;;5043632;28;20035;-66
2022/11/28 00:13:41;;;;;;;4.15;2.65;;;;;;;;;;5040664;28;20017;-66
2022/11/28 00:16:07;;;;;;;4.55;3.00;;;;;;;;;;5045889;28;20092;-66
2022/11/28 00:18:32;;;;;;;9.00;2.78;;;;;;;;;;5046907;28;20022;-66
2022/11/28 00:21:08;;;;;;;4.97;3.30;;;;;;;;;;5048238;28;20104;-67
2022/11/28 00:23:34;;;;;;;10.73;3.42;;;;;;;;;;5047658;28;20026;-67
2022/11/28 00:26:00;;;;;;;3.75;2.75;;;;;;;;;;5033191;28;20036;-67
2022/11/28 00:28:26;;;;;;;4.80;3.05;;;;;;;;;;5006946;28;20028;-66
2022/11/28 00:30:51;;;;;;;4.00;2.58;;;;;;;;;;5026092;28;20988;-66
2022/11/28 00:33:16;;;;;;;4.43;2.87;;;;;;;;;;5020614;28;20108;-66
2022/11/28 00:35:41;;;;;;;6.05;3.08;;;;;;;;;;5024011;28;20299;-67
2022/11/28 00:38:07;;;;;;;5.47;2.92;;;;;;;;;;5040969;28;20091;-66
2022/11/28 00:40:32;;;;;;;4.72;2.83;;;;;;;;;;5049548;28;20043;-66
2022/11/28 00:42:57;;;;;;;5.90;3.15;;;;;;;;;;5047906;28;20021;-64
2022/11/28 00:45:22;;;;;;;5.13;3.13;;;;;;;;;;5034466;28;20021;-67
2022/11/28 00:47:48;;;;;;;6.07;3.20;;;;;;;;;;5039908;28;20434;-65
2022/11/28 00:50:13;;;;;;;5.88;3.40;;;;;;;;;;5036327;28;20014;-66
2022/11/28 00:52:38;;;;;;;6.35;3.30;;;;;;;;;;5037572;28;20017;-66
2022/11/28 00:55:04;;;;;;;7.15;3.25;;;;;;;;;;5042574;28;20017;-65
2022/11/28 00:57:29;;;;;;;5.28;3.15;;;;;;;;;;5041668;28;20060;-65
2022/11/28 00:59:54;;;;;;;6.32;3.03;;;;;;;;;;5037418;28;20495;-65
2022/11/28 01:02:20;;;;;;;5.55;3.53;;;;;;;;;;5037764;28;20014;-66
2022/11/28 01:04:45;;;;;;;7.32;3.65;;;;;;;;;;5049478;28;20070;-66
2022/11/28 01:07:10;;;;;;;4.97;2.92;;;;;;;;;;5033981;28;20025;-65
2022/11/28 01:09:35;;;;;;;8.20;3.72;;;;;;;;;;5035234;28;20020;-66
2022/11/28 01:12:01;;;;;;;7.78;3.53;;;;;;;;;;5036278;28;20014;-65
2022/11/28 01:14:26;;;;;;;4.20;2.92;;;;;;;;;;5033144;28;20025;-66
2022/11/28 01:16:51;;;;;;;4.68;2.80;;;;;;;;;;5047367;28;20053;-66
2022/11/28 01:19:17;;;;;;;9.07;3.53;;;;;;;;;;5053439;28;20025;-66
2022/11/28 01:21:42;;;;;;;6.03;3.40;;;;;;;;;;5052870;28;20074;-66
2022/11/28 01:24:07;;;;;;;8.85;4.05;;;;;;;;;;5052411;28;20035;-66
2022/11/28 01:26:33;;;;;;;5.68;3.25;;;;;;;;;;5041902;28;20052;-66
2022/11/28 01:28:59;;;;;;;5.93;3.47;;;;;;;;;;5036674;28;20021;-65
2022/11/28 01:31:25;;;;;;;6.75;3.88;;;;;;;;;;5034586;28;20025;-66
2022/11/28 01:33:51;;;;;;;5.43;3.63;;;;;;;;;;5038219;28;20063;-66
2022/11/28 01:36:16;;;;;;;5.75;3.55;;;;;;;;;;5041982;28;20053;-65
2022/11/28 01:38:42;;;;;;;6.82;3.35;;;;;;;;;;5036030;28;20095;-65
2022/11/28 01:41:07;;;;;;;4.68;2.83;;;;;;;;;;5056527;28;20033;-65
2022/11/28 01:43:33;;;;;;;7.93;3.65;;;;;;;;;;5031890;28;20008;-65
2022/11/28 01:45:59;;;;;;;13.77;3.42;;;;;;;;;;5059503;28;20052;-65
2022/11/28 01:48:30;;;;;;;10.70;3.38;;;;;;;;;;5055297;28;20448;-65
2022/11/28 01:50:57;;;;;;;8.25;4.30;;;;;;;;;;5052626;28;20017;-65
2022/11/28 01:53:25;;;;;;;7.97;3.85;;;;;;;;;;5052568;28;20013;-65
2022/11/28 01:55:55;;;;;;;7.05;3.92;;;;;;;;;;5052449;28;20024;-65
2022/11/28 01:58:21;;;;;;;5.13;3.53;;;;;;;;;;5051842;28;20475;-65
2022/11/28 02:00:47;;;;;;;11.38;3.67;;;;;;;;;;5050609;28;20063;-65
2022/11/28 02:03:14;;;;;;;7.97;3.80;;;;;;;;;;5052111;28;20045;-65
2022/11/28 02:05:39;;;;;;;5.78;2.95;;;;;;;;;;5052542;28;20070;-65
2022/11/28 02:08:05;;;;;;;4.80;2.97;;;;;;;;;;5047668;28;20021;-65
2022/11/28 02:10:39;;;;;;;7.50;3.08;;;;;;;;;;5029299;28;20099;-65
2022/11/28 02:13:23;;;;;;;4.85;3.05;;;;;;;;;;5033607;28;20038;-65
2022/11/28 02:15:57;;;;;;;5.55;3.38;;;;;;;;;;5038308;28;20111;-64
2022/11/28 02:18:48;;;;;;;7.60;3.13;;;;;;;;;;5040149;28;20021;-64
2022/11/28 02:21:15;;;;;;;4.93;3.22;;;;;;;;;;5023978;28;20140;-64
2022/11/28 02:23:53;;;;;;;8.13;3.30;;;;;;;;;;5035539;28;20032;-64
2022/11/28 02:26:40;;;;;;;6.40;3.30;;;;;;;;;;5057518;28;20387;-64
2022/11/28 02:29:22;;;;;;;4.88;3.33;;;;;;;;;;5062455;28;20100;-64
2022/11/28 02:31:53;;;;;;;5.40;3.08;;;;;;;;;;5040268;28;20540;-64
2022/11/28 02:34:24;;;;;;;7.25;3.70;;;;;;;;;;5057893;28;20107;-63
2022/11/28 02:36:50;;;;;;;4.80;3.10;;;;;;;;;;5053361;28;20017;-64
2022/11/28 02:39:23;;;;;;;6.60;3.60;;;;;;;;;;5044075;28;20029;-64
2022/11/28 02:41:49;;;;;;;7.47;3.78;;;;;;;;;;5058686;28;20029;-64
2022/11/28 02:44:16;;;;;;;5.40;3.20;;;;;;;;;;5057248;28;20021;-64
2022/11/28 02:47:01;;;;;;;5.70;3.58;;;;;;;;;;5033141;28;20303;-64
2022/11/28 02:49:30;;;;;;;7.15;3.30;;;;;;;;;;5033005;28;20036;-64
2022/11/28 02:51:57;;;;;;;4.13;2.95;;;;;;;;;;5034104;28;20112;-64
2022/11/28 02:54:23;;;;;;;5.32;3.10;;;;;;;;;;5032782;28;20380;-64
2022/11/28 02:56:50;;;;;;;4.32;2.95;;;;;;;;;;5044365;28;20027;-64
2022/11/28 02:59:30;;;;;;;7.22;3.55;;;;;;;;;;5038395;28;20013;-64
2022/11/28 03:01:56;;;;;;;5.43;3.65;;;;;;;;;;5051170;28;20028;-64
2022/11/28 03:04:28;;;;;;;6.75;3.63;;;;;;;;;;5032000;28;20013;-64
2022/11/28 03:07:00;;;;;;;5.60;3.38;;;;;;;;;;5043497;28;20070;-64
2022/11/28 03:09:28;;;;;;;5.97;3.50;;;;;;;;;;5038690;28;20468;-64
2022/11/28 03:11:59;;;;;;;5.53;3.65;;;;;;;;;;5040130;28;20108;-64
2022/11/28 03:14:27;;;;;;;5.93;3.65;;;;;;;;;;5033470;28;20104;-64
2022/11/28 03:17:07;;;;;;;10.57;3.83;;;;;;;;;;5033961;28;20537;-63
2022/11/28 03:19:36;;;;;;;6.72;3.35;;;;;;;;;;5033483;28;20063;-63
2022/11/28 03:22:01;;;;;;;6.82;3.40;;;;;;;;;;5035738;28;20029;-63
2022/11/28 03:24:30;;;;;;;7.07;3.53;;;;;;;;;;5034432;28;20025;-63
2022/11/28 03:27:06;;;;;;;9.25;3.92;;;;;;;;;;5037149;28;20318;-63
2022/11/28 03:29:38;;;;;;;9.40;3.85;;;;;;;;;;5041276;28;20025;-63
2022/11/28 03:32:06;;;;;;;5.72;3.40;;;;;;;;;;5035601;28;20029;-63
2022/11/28 03:34:32;;;;;;;7.50;3.88;;;;;;;;;;5056433;28;20017;-63
2022/11/28 03:37:00;;;;;;;5.57;3.40;;;;;;;;;;5036284;28;20044;-63
2022/11/28 03:39:28;;;;;;;6.25;3.63;;;;;;;;;;5031673;28;20057;-62
2022/11/28 03:41:55;;;;;;;5.78;3.50;;;;;;;;;;5056992;28;20108;-63
2022/11/28 03:44:26;;;;;;;7.57;4.35;;;;;;;;;;5028782;28;20471;-63
2022/11/28 03:46:53;;;;;;;6.97;3.88;;;;;;;;;;5054804;28;20022;-63
2022/11/28 03:49:21;;;;;;;6.30;3.72;;;;;;;;;;5032137;28;20025;-63
2022/11/28 03:51:54;;;;;;;7.50;4.13;;;;;;;;;;5049062;28;20033;-63
2022/11/28 03:54:34;;;;;;;7.40;3.97;;;;;;;;;;5049451;28;20356;-63
2022/11/28 03:57:02;;;;;;;5.68;3.78;;;;;;;;;;5041873;28;20128;-63
2022/11/28 03:59:27;;;;;;;6.50;3.97;;;;;;;;;;5054469;28;20059;-63
2022/11/28 04:02:00;;;;;;;7.50;4.30;;;;;;;;;;5042708;28;20052;-63
2022/11/28 04:04:35;;;;;;;5.90;4.22;;;;;;;;;;5043483;28;20283;-63
2022/11/28 04:07:17;;;;;;;6.68;4.32;;;;;;;;;;5044979;28;20113;-63
2022/11/28 04:09:49;;;;;;;6.40;3.90;;;;;;;;;;5036634;28;20025;-63
2022/11/28 04:12:20;;;;;;;6.90;3.97;;;;;;;;;;5035330;28;20033;-63
2022/11/28 04:14:48;;;;;;;7.22;4.55;;;;;;;;;;5041657;28;20091;-63
2022/11/28 04:17:31;;;;;;;7.28;4.55;;;;;;;;;;5042494;28;20502;-63
2022/11/28 04:20:01;;;;;;;5.40;4.23;;;;;;;;;;5043455;28;20013;-63
2022/11/28 04:22:29;;;;;;;9.73;4.55;;;;;;;;;;5051941;28;20013;-63
2022/11/28 04:24:59;;;;;;;7.70;4.57;;;;;;;;;;5035468;28;20021;-63
2022/11/28 04:27:30;;;;;;;6.32;4.32;;;;;;;;;;5036760;28;20018;-63
2022/11/28 04:29:57;;;;;;;5.72;4.20;;;;;;;;;;5035239;28;20020;-63
2022/11/28 04:32:23;;;;;;;9.25;4.80;;;;;;;;;;5035371;28;20104;-63
2022/11/28 04:34:55;;;;;;;7.00;4.10;;;;;;;;;;5051561;28;20047;-63
2022/11/28 04:37:21;;;;;;;6.10;4.63;;;;;;;;;;5050136;28;20026;-63
2022/11/28 04:39:47;;;;;;;9.98;4.43;;;;;;;;;;5035029;28;20032;-63
2022/11/28 04:42:17;;;;;;;8.98;6.07;;;;;;;;;;5060861;28;20030;-63
2022/11/28 04:44:54;;;;;;;11.10;5.40;;;;;;;;;;5047465;28;20045;-63
2022/11/28 04:47:19;;;;;;;8.77;4.95;;;;;;;;;;5034867;28;20493;-63
2022/11/28 04:49:45;;;;;;;9.13;5.63;;;;;;;;;;5036009;28;20017;-63
2022/11/28 04:52:13;;;;;;;7.90;5.15;;;;;;;;;;5042549;28;20013;-63
2022/11/28 04:54:51;;;;;;;8.00;5.22;;;;;;;;;;5042238;28;20022;-63
2022/11/28 04:57:20;;;;;;;9.00;6.50;;;;;;;;;;5035889;28;20025;-63
2022/11/28 04:59:46;;;;;;;7.93;5.85;;;;;;;;;;5035744;28;20578;-63
2022/11/28 05:02:12;;;;;;;8.30;6.03;;;;;;;;;;5035349;28;20112;-63
2022/11/28 05:04:37;;;;;;;7.50;5.30;;;;;;;;;;5037096;28;20018;-63
2022/11/28 05:07:04;;;;;;;13.77;5.68;;;;;;;;;;5033826;28;20032;-63
2022/11/28 05:09:29;;;;;;;7.05;5.10;;;;;;;;;;5034769;28;20037;-63
2022/11/28 05:11:54;;;;;;;8.65;6.45;;;;;;;;;;5034461;28;20026;-63
2022/11/28 05:14:19;;;;;;;8.48;5.50;;;;;;;;;;5034193;28;20014;-63
2022/11/28 05:16:45;;;;;;;11.13;6.13;;;;;;;;;;5033979;28;20021;-63
2022/11/28 05:19:10;;;;;;;9.00;5.70;;;;;;;;;;5034048;28;20136;-63
2022/11/28 05:21:35;;;;;;;8.73;5.82;;;;;;;;;;5033759;28;20053;-63
2022/11/28 05:24:00;;;;;;;9.25;6.30;;;;;;;;;;5049571;28;20024;-63
2022/11/28 05:26:26;;;;;;;15.52;6.55;;;;;;;;;;5053853;28;20522;-63
2022/11/28 05:28:51;;;;;;;9.45;5.28;;;;;;;;;;5037681;28;20017;-63
2022/11/28 05:31:17;;;;;;;8.57;6.10;;;;;;;;;;5037764;28;20025;-63
2022/11/28 05:33:43;;;;;;;11.63;7.07;;;;;;;;;;5045548;28;20359;-63
2022/11/28 05:36:09;;;;;;;9.57;5.90;;;;;;;;;;5046777;28;20021;-63
2022/11/28 05:38:35;;;;;;;11.75;6.97;;;;;;;;;;5037338;28;20112;-62
2022/11/28 05:41:00;;;;;;;10.52;6.93;;;;;;;;;;5053123;28;20119;-63
2022/11/28 05:43:25;;;;;;;10.05;6.65;;;;;;;;;;5054917;28;20020;-63
2022/11/28 05:45:51;;;;;;;9.30;6.90;;;;;;;;;;5052980;28;20134;-63
2022/11/28 05:48:16;;;;;;;8.02;6.35;;;;;;;;;;5053034;28;20032;-63
2022/11/28 05:50:41;;;;;;;8.82;7.50;;;;;;;;;;5053197;28;20021;-63
2022/11/28 05:53:07;;;;;;;9.35;6.40;;;;;;;;;;5037265;28;20155;-63
2022/11/28 05:55:33;;;;;;;9.95;7.15;;;;;;;;;;5033297;28;20021;-62
2022/11/28 05:57:58;;;;;;;11.10;7.13;;;;;;;;;;5035918;28;20028;-62
2022/11/28 06:00:23;;;;;;;9.73;7.23;;;;;;;;;;5033482;28;20026;-63
2022/11/28 06:02:48;;;;;;;9.15;6.57;;;;;;;;;;5035160;28;20349;-62
2022/11/28 06:05:14;;;;;;;9.75;6.95;;;;;;;;;;5037158;28;20028;-62
2022/11/28 06:07:39;;;;;;;10.20;7.25;;;;;;;;;;5041629;28;20108;-62
2022/11/28 06:10:06;;;;;;;10.13;7.70;;;;;;;;;;5035590;28;20040;-63
2022/11/28 06:12:31;;;;;;;9.88;7.47;;;;;;;;;;5034497;28;20348;-63
2022/11/28 06:14:56;;;;;;;15.10;7.75;;;;;;;;;;5036737;28;20112;-64
2022/11/28 06:17:21;;;;;;;15.07;8.07;;;;;;;;;;5034175;28;20029;-64
2022/11/28 06:19:47;;;;;;;9.85;7.25;;;;;;;;;;5038353;28;20276;-64
2022/11/28 06:22:12;;;;;;;9.95;7.45;;;;;;;;;;5038503;28;20037;-63
2022/11/28 06:24:37;;;;;;;10.13;7.10;;;;;;;;;;5036089;28;20606;-63
2022/11/28 06:27:02;;;;;;;9.45;7.25;;;;;;;;;;5038172;28;20350;-64
2022/11/28 06:29:28;;;;;;;9.35;6.43;;;;;;;;;;5036615;28;20048;-63
2022/11/28 06:31:54;;;;;;;12.98;7.70;;;;;;;;;;5036033;28;20167;-64
2022/11/28 06:34:20;;;;;;;10.18;6.68;;;;;;;;;;5037012;28;20040;-64
2022/11/28 06:36:45;;;;;;;7.60;6.00;;;;;;;;;;5037068;28;20096;-64
2022/11/28 06:39:14;;;;;;;10.18;7.40;;;;;;;;;;5036930;28;20041;-64
2022/11/28 06:41:40;;;;;;;10.38;7.35;;;;;;;;;;5039380;28;20033;-64
2022/11/28 06:44:05;;;;;;;11.45;7.43;;;;;;;;;;5051560;28;20029;-64
2022/11/28 06:46:30;;;;;;;9.20;6.33;;;;;;;;;;5048981;28;20481;-64
2022/11/28 06:48:55;;;;;;;19.45;7.78;;;;;;;;;;5051067;28;20619;-63
2022/11/28 06:51:21;;;;;;;8.57;6.20;;;;;;;;;;5048285;28;20018;-64
2022/11/28 06:53:46;;;;;;;11.05;6.97;;;;;;;;;;5033436;28;20100;-64
2022/11/28 06:56:13;;;;;;;14.50;8.13;;;;;;;;;;5035154;28;20024;-64
2022/11/28 06:58:38;;;;;;;11.07;6.70;;;;;;;;;;5031239;28;20879;-64
2022/11/28 07:01:08;;;;;;;11.43;6.80;;;;;;;;;;5041479;28;20043;-64
2022/11/28 07:03:33;;;;;;;8.57;6.15;;;;;;;;;;5037104;28;20021;-64
2022/11/28 07:05:59;;;;;;;9.85;6.75;;;;;;;;;;5038171;28;20022;-64
2022/11/28 07:08:24;;;;;;;14.98;7.82;;;;;;;;;;5035935;28;20037;-64
2022/11/28 07:10:49;;;;;;;9.45;7.10;;;;;;;;;;5038072;28;20052;-64
2022/11/28 07:13:15;;;;;;;14.23;6.80;;;;;;;;;;5035686;28;20013;-64
2022/11/28 07:15:46;;;;;;;10.50;6.57;;;;;;;;;;5036754;28;20021;-65
2022/11/28 07:18:11;;;;;;;9.80;6.88;;;;;;;;;;5036792;28;20024;-64
2022/11/28 07:20:37;;;;;;;14.52;8.00;;;;;;;;;;5038767;28;20387;-64
2022/11/28 07:23:02;;;;;;;11.07;7.75;;;;;;;;;;5043182;28;20017;-64
2022/11/28 07:25:27;;;;;;;9.38;6.88;;;;;;;;;;5042844;28;20091;-64
2022/11/28 07:27:52;;;;;;;9.93;7.65;;;;;;;;;;5037035;28;20033;-65
2022/11/28 07:30:19;;;;;;;10.33;6.37;;;;;;;;;;5041848;28;20032;-64
2022/11/28 07:32:45;;;;;;;9.13;7.22;;;;;;;;;;5042611;28;20276;-64
2022/11/28 07:35:11;;;;;;;11.90;7.13;;;;;;;;;;5040129;28;20016;-64
2022/11/28 07:37:36;;;;;;;13.90;8.18;;;;;;;;;;5043234;28;20096;-63
2022/11/28 07:40:01;;;;;;;11.60;8.55;;;;;;;;;;5042834;28;20108;-63
2022/11/28 07:42:26;;;;;;;11.10;7.53;;;;;;;;;;5066900;28;20024;-63
2022/11/28 07:44:52;;;;;;;11.68;8.18;;;;;;;;;;5040987;28;20033;-63
2022/11/28 07:47:17;;;;;;;11.07;8.13;;;;;;;;;;5043766;28;20104;-63
2022/11/28 07:49:42;;;;;;;16.08;9.30;;;;;;;;;;5044856;28;20112;-63
2022/11/28 07:52:07;;;;;;;11.18;8.75;;;;;;;;;;5049217;28;20071;-62
2022/11/28 07:54:33;;;;;;;11.40;8.18;;;;;;;;;;5044401;28;20020;-63
2022/11/28 07:56:58;;;;;;;10.55;8.75;;;;;;;;;;5048041;28;20437;-63
2022/11/28 07:59:23;;;;;;;13.13;8.98;;;;;;;;;;5042693;28;20017;-62
2022/11/28 08:01:48;;;;;;;11.00;8.05;;;;;;;;;;5051134;28;20032;-62
2022/11/28 08:04:14;;;;;;;12.63;9.60;;;;;;;;;;5041882;28;20025;-63
2022/11/28 08:06:40;;;;;;;10.65;8.70;;;;;;;;;;5041316;28;20025;-63
2022/11/28 08:09:06;;;;;;;10.30;8.02;;;;;;;;;;5038731;28;20036;-63
2022/11/28 08:11:31;;;;;;;10.90;7.85;;;;;;;;;;5040181;28;20436;-63
2022/11/28 08:13:57;;;;;;;11.57;9.00;;;;;;;;;;5040781;28;20025;-63
2022/11/28 08:16:23;;;;;;;17.90;8.85;;;;;;;;;;5039031;28;20083;-63
2022/11/28 08:18:48;;;;;;;10.90;8.82;;;;;;;;;;5036737;28;20483;-63
2022/11/28 08:21:15;;;;;;;15.93;9.63;;;;;;;;;;5036974;28;20040;-63
2022/11/28 08:23:41;;;;;;;11.68;8.43;;;;;;;;;;5036910;28;20092;-63
2022/11/28 08:26:09;;;;;;;14.45;9.15;;;;;;;;;;5038230;28;20441;-66
2022/11/28 08:28:34;;;;;;;11.73;8.50;;;;;;;;;;5036542;28;20105;-63
2022/11/28 08:31:07;;;;;;;12.48;8.90;;;;;;;;;;5049390;28;20121;-63
2022/11/28 08:33:32;;;;;;;14.55;9.02;;;;;;;;;;5040508;28;20016;-62
2022/11/28 08:35:57;;;;;;;13.93;8.50;;;;;;;;;;5064574;28;20105;-62
2022/11/28 08:38:22;;;;;;;9.95;8.90;;;;;;;;;;5050501;28;20045;-62
2022/11/28 08:40:48;;;;;;;11.45;9.05;;;;;;;;;;5060689;28;20040;-62
2022/11/28 08:43:13;;;;;;;12.23;9.13;;;;;;;;;;5044549;28;20416;-63
2022/11/28 08:45:38;;;;;;;12.02;10.15;;;;;;;;;;5035124;28;20017;-63
2022/11/28 08:48:04;;;;;;;12.93;9.15;;;;;;;;;;5034423;28;20052;-62
2022/11/28 08:50:29;;;;;;;15.23;9.18;;;;;;;;;;5034728;28;20483;-62
2022/11/28 08:52:55;;;;;;;13.05;9.25;;;;;;;;;;5034929;28;20476;-63
2022/11/28 08:55:20;;;;;;;11.20;9.45;;;;;;;;;;5053449;28;20413;-62
2022/11/28 08:57:45;;;;;;;11.85;9.68;;;;;;;;;;5052477;28;20028;-62
2022/11/28 09:00:11;;;;;;;10.90;9.67;;;;;;;;;;5053932;28;20025;-62
2022/11/28 09:02:37;;;;;;;13.00;9.70;;;;;;;;;;5053625;28;20271;-63
2022/11/28 09:05:02;;;;;;;13.10;9.75;;;;;;;;;;5056275;28;20032;-62
2022/11/28 09:07:27;;;;;;;16.13;9.80;;;;;;;;;;5056375;28;20100;-62
2022/11/28 09:09:52;;;;;;;11.60;10.35;;;;;;;;;;5052985;28;20032;-62
2022/11/28 09:12:17;;;;;;;12.68;10.20;;;;;;;;;;5051425;28;20025;-62
2022/11/28 09:14:43;;;;;;;17.63;10.13;;;;;;;;;;5052710;28;20079;-62
2022/11/28 09:17:08;;;;;;;11.83;9.83;;;;;;;;;;5052351;28;20273;-62
2022/11/28 09:19:33;;;;;;;12.38;10.07;;;;;;;;;;5052378;28;20347;-62
2022/11/28 09:21:58;;;;;;;12.88;10.18;;;;;;;;;;5050919;28;20386;-62
2022/11/28 09:24:24;;;;;;;10.63;9.47;;;;;;;;;;5047294;28;20017;-62
2022/11/28 09:26:49;;;;;;;11.88;10.10;;;;;;;;;;5033764;28;20279;-62
2022/11/28 09:29:14;;;;;;;20.65;10.77;;;;;;;;;;5044901;28;20064;-62
2022/11/28 09:31:39;;;;;;;13.35;10.27;;;;;;;;;;5036075;28;20063;-62
2022/11/28 09:34:05;;;;;;;12.88;10.63;;;;;;;;;;5060770;28;20017;-62
2022/11/28 09:36:30;;;;;;;12.60;10.18;;;;;;;;;;5058600;28;20021;-62
2022/11/28 09:38:58;;;;;;;10.90;9.48;;;;;;;;;;5052330;28;20024;-62
2022/11/28 09:41:38;;;;;;;12.38;10.40;;;;;;;;;;5066048;28;20071;-62
2022/11/28 09:44:14;;;;;;;11.15;9.48;;;;;;;;;;5041175;28;20447;-62
2022/11/28 09:46:40;;;;;;;11.70;8.93;;;;;;;;;;5050049;28;20028;-62
2022/11/28 09:49:16;;;;;;;17.15;12.45;;;;;;;;;;5052692;28;20020;-62
2022/11/28 09:51:47;;;;;;;11.75;9.23;;;;;;;;;;5040229;28;20020;-62
2022/11/28 09:54:12;;;;;;;15.13;10.90;;;;;;;;;;5036026;28;20138;-62
2022/11/28 09:56:38;;;;;;;13.07;10.60;;;;;;;;;;5009589;28;20869;-63
2022/11/28 09:59:04;;;;;;;11.80;9.10;;;;;;;;;;5011370;28;20293;-63
2022/11/28 10:01:48;;;;;;;9.68;8.57;;;;;;;;;;5001767;28;20131;-62
2022/11/28 10:04:32;;;;;;;12.32;9.07;;;;;;;;;;5006166;28;20215;-62
2022/11/28 10:07:03;;;;;;;11.90;9.03;;;;;;;;;;5007297;28;20047;-63
2022/11/28 10:09:33;;;;;;;10.77;8.35;;;;;;;;;;5004128;28;20202;-64
2022/11/28 10:12:01;;;;;;;11.88;8.25;;;;;;;;;;5004030;28;20896;-63
2022/11/28 10:14:35;;;;;;;12.68;8.70;;;;;;;;;;5008782;28;20942;-62
2022/11/28 10:17:09;;;;;;;10.95;9.38;;;;;;;;;;5006275;28;20891;-63
2022/11/28 10:19:37;;;;;;;11.45;8.38;;;;;;;;;;5005387;28;20044;-63
2022/11/28 10:22:05;;;;;;;11.10;8.73;;;;;;;;;;5004615;28;20024;-62
2022/11/28 10:24:37;;;;;;;12.68;9.45;;;;;;;;;;5011135;28;20017;-63
2022/11/28 10:27:04;;;;;;;11.82;10.48;;;;;;;;;;5008362;28;20021;-63
2022/11/28 10:29:32;;;;;;;11.68;10.07;;;;;;;;;;5013806;28;20013;-62
2022/11/28 10:32:00;;;;;;;10.75;9.55;;;;;;;;;;5001193;28;20318;-62
2022/11/28 10:34:25;;;;;;;15.15;10.02;;;;;;;;;;5010592;28;20087;-63
2022/11/28 10:36:54;;;;;;;10.80;9.40;;;;;;;;;;5003301;28;20029;-63
2022/11/28 10:39:20;;;;;;;12.77;9.85;;;;;;;;;;5009441;28;20279;-63
2022/11/28 10:42:13;;;;;;;14.07;11.32;;;;;;;;;;5011449;28;20243;-63
2022/11/28 10:44:57;;;;;;;12.40;9.48;;;;;;;;;;5007564;28;20052;-63
2022/11/28 10:47:45;;;;;;;12.93;10.52;;;;;;;;;;5012355;28;20884;-62
2022/11/28 10:50:25;;;;;;;13.20;11.75;;;;;;;;;;5004998;28;20052;-63
2022/11/28 10:52:58;;;;;;;14.30;10.38;;;;;;;;;;5007998;28;20128;-62
2022/11/28 10:55:44;;;;;;;14.68;10.95;;;;;;;;;;5016766;28;20022;-62
2022/11/28 10:58:20;;;;;;;12.70;10.43;;;;;;;;;;5018685;28;20025;-63
2022/11/28 11:00:48;;;;;;;12.10;10.80;;;;;;;;;;5040736;28;20030;-62
2022/11/28 11:03:15;;;;;;;11.82;9.73;;;;;;;;;;5034301;28;20045;-63
2022/11/28 11:05:41;;;;;;;12.55;10.60;;;;;;;;;;5028915;28;20017;-63
2022/11/28 11:08:16;;;;;;;13.50;11.07;;;;;;;;;;5030993;28;20436;-63
2022/11/28 11:10:46;;;;;;;13.93;11.98;;;;;;;;;;5032042;28;20036;-63
2022/11/28 11:13:13;;;;;;;13.15;11.15;;;;;;;;;;5036486;28;20013;-63
2022/11/28 11:15:38;;;;;;;14.40;12.55;;;;;;;;;;5037060;28;20545;-63
2022/11/28 11:18:04;;;;;;;12.40;11.13;;;;;;;;;;5040616;28;20025;-63
2022/11/28 11:20:37;;;;;;;14.90;12.50;;;;;;;;;;5033930;28;20091;-63
2022/11/28 11:23:17;;;;;;;14.07;12.02;;;;;;;;;;5022515;28;20079;-63
2022/11/28 11:25:57;;;;;;;21.02;12.18;;;;;;;;;;5005463;28;20029;-64
2022/11/28 11:28:25;;;;;;;21.92;14.88;;;;;;;;;;5030527;28;20013;-63
2022/11/28 11:30:57;;;;;;;19.00;16.60;;;;;;;;;;5018285;28;20076;-63
2022/11/28 11:33:22;;;;;;;19.55;17.13;;;;;;;;;;5022888;28;20086;-64
2022/11/28 11:35:48;;;;;;;20.38;15.32;;;;;;;;;;5044871;28;20029;-63
2022/11/28 11:38:24;;;;;;;18.70;14.57;;;;;;;;;;5022922;28;20492;-63
2022/11/28 11:40:50;;;;;;;16.17;12.60;;;;;;;;;;5031571;28;20047;-63
2022/11/28 11:43:29;;;;;;;15.43;11.38;;;;;;;;;;5036853;28;20721;-63
2022/11/28 11:46:10;;;;;;;15.48;12.07;;;;;;;;;;5013261;28;20859;-63
2022/11/28 11:48:36;;;;;;;15.73;13.70;;;;;;;;;;5020238;28;20021;-63
2022/11/28 11:51:01;;;;;;;16.98;13.00;;;;;;;;;;5020097;28;20367;-63
2022/11/28 11:53:26;;;;;;;19.13;12.45;;;;;;;;;;5017058;28;20104;-63
2022/11/28 11:55:53;;;;;;;18.35;13.18;;;;;;;;;;5023628;28;20017;-63
2022/11/28 11:58:24;;;;;;;13.77;10.32;;;;;;;;;;5021458;28;20029;-63
2022/11/28 12:00:51;;;;;;;17.73;11.85;;;;;;;;;;5024990;28;20055;-63
2022/11/28 12:03:24;;;;;;;16.70;12.95;;;;;;;;;;5028384;28;20031;-63
2022/11/28 12:05:53;;;;;;;15.65;12.52;;;;;;;;;;5011315;28;20086;-63
2022/11/28 12:08:30;;;;;;;14.35;11.27;;;;;;;;;;5020272;28;20029;-63
2022/11/28 12:11:01;;;;;;;12.55;10.50;;;;;;;;;;5027142;28;20494;-63
2022/11/28 12:13:26;;;;;;;18.27;11.40;;;;;;;;;;5026987;28;21021;-64
2022/11/28 12:15:51;;;;;;;15.00;10.32;;;;;;;;;;5026344;28;20043;-63
2022/11/28 12:18:35;;;;;;;24.87;16.13;;;;;;;;;;5026319;28;20084;-63
2022/11/28 12:21:05;;;;;;;32.37;17.53;;;;;;;;;;5021595;28;20395;-63
2022/11/28 12:23:33;;;;;;;14.50;11.25;;;;;;;;;;5032732;28;20079;-63
2022/11/28 12:26:19;;;;;;;14.35;9.90;;;;;;;;;;5018552;28;20132;-63
2022/11/28 12:29:05;;;;;;;16.02;8.98;;;;;;;;;;5037728;28;20037;-64
2022/11/28 12:31:50;;;;;;;13.27;9.80;;;;;;;;;;5025540;28;20101;-64
2022/11/28 12:34:18;;;;;;;14.02;9.35;;;;;;;;;;5049447;28;20799;-64
2022/11/28 12:36:55;;;;;;;14.90;9.15;;;;;;;;;;5038307;28;20120;-64
2022/11/28 12:39:26;;;;;;;11.32;8.57;;;;;;;;;;5027017;28;20045;-64
2022/11/28 12:42:08;;;;;;;13.55;9.48;;;;;;;;;;5047384;28;20032;-64
2022/11/28 12:44:50;;;;;;;13.77;8.80;;;;;;;;;;5037110;28;20028;-64
2022/11/28 12:47:20;;;;;;;12.75;8.70;;;;;;;;;;5041452;28;20858;-64
2022/11/28 12:50:08;;;;;;;14.18;10.05;;;;;;;;;;5042648;28;20025;-64
2022/11/28 12:52:39;;;;;;;16.27;9.82;;;;;;;;;;5022587;28;20082;-64
2022/11/28 12:55:24;;;;;;;11.85;7.88;;;;;;;;;;5036565;28;20032;-64
2022/11/28 12:57:56;;;;;;;13.85;9.30;;;;;;;;;;5039700;28;20847;-64
2022/11/28 13:00:23;;;;;;;11.95;7.72;;;;;;;;;;5039569;28;20100;-65
2022/11/28 13:02:54;;;;;;;14.52;8.75;;;;;;;;;;5022364;28;20033;-65
2022/11/28 13:05:38;;;;;;;12.65;8.40;;;;;;;;;;5046227;28;20075;-65
2022/11/28 13:08:06;;;;;;;11.95;8.45;;;;;;;;;;5047270;28;20140;-65
2022/11/28 13:10:34;;;;;;;11.43;7.68;;;;;;;;;;5035430;28;20026;-65
2022/11/28 13:13:03;;;;;;;12.77;8.30;;;;;;;;;;5037693;28;20105;-64
2022/11/28 13:15:31;;;;;;;15.77;8.57;;;;;;;;;;5044810;28;20048;-64
2022/11/28 13:18:05;;;;;;;12.70;9.07;;;;;;;;;;5047947;28;20112;-64
2022/11/28 13:20:33;;;;;;;11.18;8.32;;;;;;;;;;5036476;28;20037;-64
2022/11/28 13:23:10;;;;;;;11.25;8.25;;;;;;;;;;5035011;28;20028;-64
2022/11/28 13:25:54;;;;;;;10.75;8.90;;;;;;;;;;5032345;28;20060;-65
2022/11/28 13:28:27;;;;;;;12.40;8.93;;;;;;;;;;5031067;28;20013;-65
2022/11/28 13:30:56;;;;;;;12.98;8.82;;;;;;;;;;5038900;28;20017;-65
2022/11/28 13:33:27;;;;;;;14.40;8.45;;;;;;;;;;5034025;28;20017;-65
2022/11/28 13:35:52;;;;;;;14.18;8.80;;;;;;;;;;5042865;28;20462;-65
2022/11/28 13:38:21;;;;;;;10.38;8.40;;;;;;;;;;5036959;28;20036;-65
2022/11/28 13:40:52;;;;;;;14.65;9.63;;;;;;;;;;5052765;28;21019;-65
2022/11/28 13:43:23;;;;;;;14.75;9.80;;;;;;;;;;5032120;28;20025;-64
2022/11/28 13:45:49;;;;;;;12.05;8.50;;;;;;;;;;5031771;28;20042;-64
2022/11/28 13:48:43;;;;;;;17.88;9.98;;;;;;;;;;5038364;28;20368;-64
2022/11/28 13:51:12;;;;;;;15.68;9.90;;;;;;;;;;5039018;28;20118;-64
2022/11/28 13:53:37;;;;;;;16.27;9.00;;;;;;;;;;5030484;28;20025;-64
2022/11/28 13:56:05;;;;;;;18.67;10.60;;;;;;;;;;5031298;28;20471;-64
2022/11/28 13:58:40;;;;;;;15.15;8.77;;;;;;;;;;5031133;28;20028;-64
2022/11/28 14:01:10;;;;;;;15.00;9.35;;;;;;;;;;5034517;28;20086;-65
2022/11/28 14:03:56;;;;;;;18.13;10.57;;;;;;;;;;5028844;28;20472;-65
2022/11/28 14:06:23;;;;;;;20.98;10.85;;;;;;;;;;5026747;28;20037;-65
2022/11/28 14:08:57;;;;;;;17.00;9.85;;;;;;;;;;5029071;28;20427;-64
2022/11/28 14:11:22;;;;;;;;;;;;;;;;;;5039679;28;20128;-64
2022/11/28 14:14:01;;;;;;;16.80;9.57;;;;;;;;;;5030437;28;19923;-64
2022/11/28 14:16:27;;;;;;;16.27;9.77;;;;;;;;;;5028584;28;20032;-65
2022/11/28 14:19:18;;;;;;;11.85;8.25;;;;;;;;;;5042922;28;20020;-65
2022/11/28 14:21:43;;;;;;;19.73;9.30;;;;;;;;;;5025157;28;20759;-64
2022/11/28 14:24:12;;;;;;;18.37;12.23;;;;;;;;;;5042096;28;20027;-66
2022/11/28 14:26:38;;;;;;;30.77;19.17;;;;;;;;;;5033353;28;20326;-66
2022/11/28 14:29:05;;;;;;;16.38;13.15;;;;;;;;;;5026434;28;20938;-65
2022/11/28 14:31:34;;;;;;;22.58;17.33;;;;;;;;;;5028442;28;20024;-65
2022/11/28 14:34:01;;;;;;;19.10;11.55;;;;;;;;;;5042111;28;20029;-66
2022/11/28 14:36:30;;;;;;;19.80;11.18;;;;;;;;;;5045674;28;20024;-66
2022/11/28 14:38:59;;;;;;;15.10;11.02;;;;;;;;;;5038401;28;20033;-66
2022/11/28 14:41:24;;;;;;;17.95;11.80;;;;;;;;;;5051864;28;20131;-66
2022/11/28 14:43:51;;;;;;;14.70;10.95;;;;;;;;;;5039874;28;20420;-66